sensor_id;sensor_type;location;lat;lon;timestamp;pressure;altitude;pressure_sealevel;temperature;humidity
72640;BME280;60683;51.730;8.762;2023-08-06T00:00:03;99459.53;;;14.25;100.00
72640;BME280;60683;51.730;8.762;2023-08-06T00:02:32;99458.75;;;14.20;100.00
72640;BME280;60683;51.730;8.762;2023-08-06T00:04:59;99468.22;;;14.17;100.00
72640;BME280;60683;51.730;8.762;2023-08-06T00:07:27;99464.94;;;14.25;100.00
72640;BME280;60683;51.730;8.762;2023-08-06T00:09:54;99468.72;;;14.30;100.00
72640;BME280;60683;51.730;8.762;2023-08-06T00:12:22;99467.38;;;14.22;100.00
72640;BME280;60683;51.730;8.762;2023-08-06T00:14:50;99463.88;;;14.16;100.00
72640;BME280;60683;51.730;8.762;2023-08-06T00:17:19;99467.13;;;14.29;100.00
72640;BME280;60683;51.730;8.762;2023-08-06T00:19:47;99464.13;;;14.40;100.00
72640;BME280;60683;51.730;8.762;2023-08-06T00:22:14;99457.34;;;14.38;100.00
72640;BME280;60683;51.730;8.762;2023-08-06T00:24:42;99453.84;;;14.37;99.29
72640;BME280;60683;51.730;8.762;2023-08-06T00:27:10;99451.16;;;14.37;99.63
72640;BME280;60683;51.730;8.762;2023-08-06T00:29:37;99441.13;;;14.38;99.51
72640;BME280;60683;51.730;8.762;2023-08-06T00:32:05;99443.84;;;14.38;99.10
72640;BME280;60683;51.730;8.762;2023-08-06T00:34:34;99451.16;;;14.37;98.94
72640;BME280;60683;51.730;8.762;2023-08-06T00:37:03;99440.88;;;14.34;98.62
72640;BME280;60683;51.730;8.762;2023-08-06T00:39:36;99449.25;;;14.33;98.76
72640;BME280;60683;51.730;8.762;2023-08-06T00:42:04;99450.34;;;14.37;99.45
72640;BME280;60683;51.730;8.762;2023-08-06T00:44:34;99445.75;;;14.32;99.37
72640;BME280;60683;51.730;8.762;2023-08-06T00:47:07;99423.56;;;14.30;97.51
72640;BME280;60683;51.730;8.762;2023-08-06T00:49:40;99409.81;;;14.21;98.23
72640;BME280;60683;51.730;8.762;2023-08-06T00:52:17;99440.59;;;14.36;98.55
72640;BME280;60683;51.730;8.762;2023-08-06T00:54:46;99433.56;;;14.35;97.82
72640;BME280;60683;51.730;8.762;2023-08-06T00:57:15;99426.81;;;14.32;98.08
72640;BME280;60683;51.730;8.762;2023-08-06T00:59:48;99426.56;;;14.29;97.56
72640;BME280;60683;51.730;8.762;2023-08-06T01:02:16;99427.63;;;14.33;98.11
72640;BME280;60683;51.730;8.762;2023-08-06T01:04:45;99425.47;;;14.30;97.84
72640;BME280;60683;51.730;8.762;2023-08-06T01:07:30;99421.97;;;14.29;98.07
72640;BME280;60683;51.730;8.762;2023-08-06T01:10:14;99402.50;;;14.27;97.64
72640;BME280;60683;51.730;8.762;2023-08-06T01:12:59;99411.97;;;14.30;98.20
72640;BME280;60683;51.730;8.762;2023-08-06T01:15:39;99403.31;;;14.22;98.42
72640;BME280;60683;51.730;8.762;2023-08-06T01:18:13;99404.13;;;14.23;98.09
72640;BME280;60683;51.730;8.762;2023-08-06T01:20:43;99401.69;;;14.21;98.50
72640;BME280;60683;51.730;8.762;2023-08-06T01:23:11;99407.09;;;14.27;97.85
72640;BME280;60683;51.730;8.762;2023-08-06T01:25:45;99398.44;;;14.24;98.39
72640;BME280;60683;51.730;8.762;2023-08-06T01:28:27;99394.69;;;14.20;99.83
72640;BME280;60683;51.730;8.762;2023-08-06T01:31:04;99386.59;;;14.15;98.60
72640;BME280;60683;51.730;8.762;2023-08-06T01:33:38;99385.50;;;14.11;99.46
72640;BME280;60683;51.730;8.762;2023-08-06T01:36:12;99382.81;;;14.06;100.00
72640;BME280;60683;51.730;8.762;2023-08-06T01:38:41;99378.25;;;14.02;100.00
72640;BME280;60683;51.730;8.762;2023-08-06T01:41:09;99382.59;;;13.98;100.00
72640;BME280;60683;51.730;8.762;2023-08-06T01:43:37;99376.66;;;13.90;100.00
72640;BME280;60683;51.730;8.762;2023-08-06T01:46:07;99371.53;;;13.84;100.00
72640;BME280;60683;51.730;8.762;2023-08-06T01:48:39;99374.78;;;13.81;100.00
72640;BME280;60683;51.730;8.762;2023-08-06T01:51:12;99369.94;;;13.78;100.00
72640;BME280;60683;51.730;8.762;2023-08-06T01:53:41;99362.38;;;13.70;100.00
72640;BME280;60683;51.730;8.762;2023-08-06T01:56:09;99366.16;;;13.74;100.00
72640;BME280;60683;51.730;8.762;2023-08-06T01:58:43;99366.16;;;13.74;100.00
72640;BME280;60683;51.730;8.762;2023-08-06T02:01:12;99356.44;;;13.73;100.00
72640;BME280;60683;51.730;8.762;2023-08-06T02:03:44;99358.84;;;13.74;100.00
72640;BME280;60683;51.730;8.762;2023-08-06T02:06:13;99353.72;;;13.78;100.00
72640;BME280;60683;51.730;8.762;2023-08-06T02:08:42;99355.59;;;13.82;100.00
72640;BME280;60683;51.730;8.762;2023-08-06T02:11:14;99358.56;;;13.86;100.00
72640;BME280;60683;51.730;8.762;2023-08-06T02:13:43;99346.69;;;13.87;100.00
72640;BME280;60683;51.730;8.762;2023-08-06T02:16:14;99356.94;;;13.90;100.00
72640;BME280;60683;51.730;8.762;2023-08-06T02:18:43;99342.34;;;13.91;100.00
72640;BME280;60683;51.730;8.762;2023-08-06T02:21:13;99334.78;;;13.93;100.00
72640;BME280;60683;51.730;8.762;2023-08-06T02:23:41;99335.31;;;13.95;100.00
72640;BME280;60683;51.730;8.762;2023-08-06T02:26:08;99335.31;;;13.95;100.00
72640;BME280;60683;51.730;8.762;2023-08-06T02:28:36;99341.81;;;13.94;100.00
72640;BME280;60683;51.730;8.762;2023-08-06T02:31:04;99340.19;;;13.93;100.00
72640;BME280;60683;51.730;8.762;2023-08-06T02:33:33;99328.84;;;13.91;100.00
72640;BME280;60683;51.730;8.762;2023-08-06T02:36:01;99329.66;;;13.86;100.00
72640;BME280;60683;51.730;8.762;2023-08-06T02:38:31;99329.94;;;13.85;100.00
72640;BME280;60683;51.730;8.762;2023-08-06T02:41:02;99324.81;;;13.83;100.00
72640;BME280;60683;51.730;8.762;2023-08-06T02:43:29;99315.88;;;13.83;100.00
72640;BME280;60683;51.730;8.762;2023-08-06T02:45:57;99321.84;;;13.80;100.00
72640;BME280;60683;51.730;8.762;2023-08-06T02:48:25;99312.66;;;13.76;100.00
72640;BME280;60683;51.730;8.762;2023-08-06T02:50:52;99308.88;;;13.72;100.00
72640;BME280;60683;51.730;8.762;2023-08-06T02:53:20;99305.38;;;13.66;100.00
72640;BME280;60683;51.730;8.762;2023-08-06T02:55:49;99304.03;;;13.64;100.00
72640;BME280;60683;51.730;8.762;2023-08-06T02:58:17;99302.44;;;13.63;100.00
72640;BME280;60683;51.730;8.762;2023-08-06T03:00:59;99299.47;;;13.59;100.00
72640;BME280;60683;51.730;8.762;2023-08-06T03:03:27;99296.53;;;13.50;100.00
72640;BME280;60683;51.730;8.762;2023-08-06T03:05:54;99298.69;;;13.43;100.00
72640;BME280;60683;51.730;8.762;2023-08-06T03:08:22;99301.13;;;13.35;100.00
72640;BME280;60683;51.730;8.762;2023-08-06T03:10:52;99300.31;;;13.29;100.00
72640;BME280;60683;51.730;8.762;2023-08-06T03:13:19;99297.09;;;13.27;100.00
72640;BME280;60683;51.730;8.762;2023-08-06T03:15:53;99293.84;;;13.20;100.00
72640;BME280;60683;51.730;8.762;2023-08-06T03:18:21;99297.38;;;13.20;100.00
72640;BME280;60683;51.730;8.762;2023-08-06T03:20:49;99289.00;;;13.17;100.00
72640;BME280;60683;51.730;8.762;2023-08-06T03:23:16;99297.59;;;13.14;100.00
72640;BME280;60683;51.730;8.762;2023-08-06T03:25:44;99294.09;;;13.13;100.00
72640;BME280;60683;51.730;8.762;2023-08-06T03:28:14;99292.78;;;13.16;100.00
72640;BME280;60683;51.730;8.762;2023-08-06T03:30:41;99289.50;;;13.14;100.00
72640;BME280;60683;51.730;8.762;2023-08-06T03:33:09;99286.81;;;13.09;100.00
72640;BME280;60683;51.730;8.762;2023-08-06T03:35:36;99285.44;;;13.01;100.00
72640;BME280;60683;51.730;8.762;2023-08-06T03:38:04;99278.19;;;12.97;100.00
72640;BME280;60683;51.730;8.762;2023-08-06T03:40:31;99282.50;;;12.98;100.00
72640;BME280;60683;51.730;8.762;2023-08-06T03:42:59;99277.13;;;12.92;100.00
72640;BME280;60683;51.730;8.762;2023-08-06T03:45:28;99273.34;;;12.93;100.00
72640;BME280;60683;51.730;8.762;2023-08-06T03:47:56;99274.16;;;12.99;100.00
72640;BME280;60683;51.730;8.762;2023-08-06T03:50:23;99265.78;;;12.96;100.00
72640;BME280;60683;51.730;8.762;2023-08-06T03:52:51;99267.41;;;12.91;100.00
72640;BME280;60683;51.730;8.762;2023-08-06T03:55:18;99266.88;;;12.89;100.00
72640;BME280;60683;51.730;8.762;2023-08-06T03:57:46;99267.41;;;12.81;100.00
72640;BME280;60683;51.730;8.762;2023-08-06T04:00:13;99257.94;;;12.79;100.00
72640;BME280;60683;51.730;8.762;2023-08-06T04:02:42;99254.44;;;12.83;100.00
72640;BME280;60683;51.730;8.762;2023-08-06T04:05:10;99255.78;;;12.81;100.00
72640;BME280;60683;51.730;8.762;2023-08-06T04:07:38;99252.03;;;12.77;100.00
72640;BME280;60683;51.730;8.762;2023-08-06T04:10:05;99250.69;;;12.84;100.00
72640;BME280;60683;51.730;8.762;2023-08-06T04:12:33;99251.75;;;12.88;100.00
72640;BME280;60683;51.730;8.762;2023-08-06T04:15:03;99254.44;;;13.04;100.00
72640;BME280;60683;51.730;8.762;2023-08-06T04:17:31;99260.09;;;13.12;100.00
72640;BME280;60683;51.730;8.762;2023-08-06T04:19:59;99259.84;;;13.24;100.00
72640;BME280;60683;51.730;8.762;2023-08-06T04:22:29;99260.66;;;13.35;100.00
72640;BME280;60683;51.730;8.762;2023-08-06T04:24:56;99260.38;;;13.31;100.00
72640;BME280;60683;51.730;8.762;2023-08-06T04:27:24;99260.09;;;13.38;100.00
72640;BME280;60683;51.730;8.762;2023-08-06T04:29:51;99267.41;;;13.32;100.00
72640;BME280;60683;51.730;8.762;2023-08-06T04:32:19;99261.72;;;13.34;100.00
72640;BME280;60683;51.730;8.762;2023-08-06T04:34:46;99268.22;;;13.33;100.00
72640;BME280;60683;51.730;8.762;2023-08-06T04:37:16;99263.06;;;13.36;100.00
72640;BME280;60683;51.730;8.762;2023-08-06T04:39:43;99264.69;;;13.32;100.00
72640;BME280;60683;51.730;8.762;2023-08-06T04:42:10;99266.84;;;13.35;100.00
72640;BME280;60683;51.730;8.762;2023-08-06T04:44:38;99263.34;;;13.45;100.00
72640;BME280;60683;51.730;8.762;2023-08-06T04:47:05;99268.44;;;13.51;100.00
72640;BME280;60683;51.730;8.762;2023-08-06T04:49:32;99257.59;;;13.62;100.00
72640;BME280;60683;51.730;8.762;2023-08-06T04:52:01;99263.50;;;13.74;100.00
72640;BME280;60683;51.730;8.762;2023-08-06T04:54:30;99257.56;;;13.77;100.00
72640;BME280;60683;51.730;8.762;2023-08-06T04:56:57;99253.19;;;13.91;100.00
72640;BME280;60683;51.730;8.762;2023-08-06T04:59:25;99249.88;;;14.04;100.00
72640;BME280;60683;51.730;8.762;2023-08-06T05:01:52;99253.09;;;14.06;100.00
72640;BME280;60683;51.730;8.762;2023-08-06T05:04:20;99253.31;;;14.15;100.00
72640;BME280;60683;51.730;8.762;2023-08-06T05:06:48;99237.91;;;14.15;100.00
72640;BME280;60683;51.730;8.762;2023-08-06T05:09:15;99244.38;;;14.24;100.00
72640;BME280;60683;51.730;8.762;2023-08-06T05:11:44;99248.66;;;14.31;100.00
72640;BME280;60683;51.730;8.762;2023-08-06T05:14:12;99250.53;;;14.35;100.00
72640;BME280;60683;51.730;8.762;2023-08-06T05:16:39;99246.19;;;14.44;100.00
72640;BME280;60683;51.730;8.762;2023-08-06T05:19:07;99259.31;;;14.56;100.00
72640;BME280;60683;51.730;8.762;2023-08-06T05:21:34;99258.78;;;14.59;100.00
72640;BME280;60683;51.730;8.762;2023-08-06T05:24:02;99254.66;;;14.67;98.11
72640;BME280;60683;51.730;8.762;2023-08-06T05:26:29;99257.06;;;14.73;97.68
72640;BME280;60683;51.730;8.762;2023-08-06T05:28:59;99255.94;;;14.79;97.78
72640;BME280;60683;51.730;8.762;2023-08-06T05:31:26;99251.03;;;14.81;96.06
72640;BME280;60683;51.730;8.762;2023-08-06T05:33:54;99252.63;;;14.87;95.58
72640;BME280;60683;51.730;8.762;2023-08-06T05:36:22;99252.03;;;14.96;96.26
72640;BME280;60683;51.730;8.762;2023-08-06T05:38:49;99246.59;;;14.96;95.73
72640;BME280;60683;51.730;8.762;2023-08-06T05:41:17;99254.94;;;15.04;94.54
72640;BME280;60683;51.730;8.762;2023-08-06T05:43:45;99256.53;;;15.05;93.99
72640;BME280;60683;51.730;8.762;2023-08-06T05:46:14;99251.34;;;15.09;95.04
72640;BME280;60683;51.730;8.762;2023-08-06T05:48:41;99252.66;;;15.11;94.63
72640;BME280;60683;51.730;8.762;2023-08-06T05:51:09;99258.38;;;15.10;95.29
72640;BME280;60683;51.730;8.762;2023-08-06T05:53:38;99263.97;;;15.18;93.47
72640;BME280;60683;51.730;8.762;2023-08-06T05:56:06;99258.28;;;15.20;92.44
72640;BME280;60683;51.730;8.762;2023-08-06T05:58:33;99256.09;;;15.22;93.11
72640;BME280;60683;51.730;8.762;2023-08-06T06:01:01;99254.19;;;15.22;94.44
72640;BME280;60683;51.730;8.762;2023-08-06T06:03:30;99262.31;;;15.22;93.57
72640;BME280;60683;51.730;8.762;2023-08-06T06:05:58;99263.38;;;15.27;92.33
72640;BME280;60683;51.730;8.762;2023-08-06T06:08:27;99261.47;;;15.27;92.58
72640;BME280;60683;51.730;8.762;2023-08-06T06:10:55;99267.31;;;15.39;92.87
72640;BME280;60683;51.730;8.762;2023-08-06T06:13:32;99260.28;;;15.38;92.65
72640;BME280;60683;51.730;8.762;2023-08-06T06:15:59;99257.00;;;15.41;92.36
72640;BME280;60683;51.730;8.762;2023-08-06T06:18:25;99257.53;;;15.43;92.60
72640;BME280;60683;51.730;8.762;2023-08-06T06:20:53;99261.31;;;15.42;91.22
72640;BME280;60683;51.730;8.762;2023-08-06T06:23:20;99264.56;;;15.44;91.30
72640;BME280;60683;51.730;8.762;2023-08-06T06:25:48;99262.94;;;15.43;91.50
72640;BME280;60683;51.730;8.762;2023-08-06T06:28:17;99267.75;;;15.51;91.45
72640;BME280;60683;51.730;8.762;2023-08-06T06:30:45;99262.81;;;15.59;91.51
72640;BME280;60683;51.730;8.762;2023-08-06T06:33:12;99263.91;;;15.58;90.06
72640;BME280;60683;51.730;8.762;2023-08-06T06:35:40;99263.03;;;15.62;91.22
72640;BME280;60683;51.730;8.762;2023-08-06T06:38:07;99250.75;;;15.70;91.02
72640;BME280;60683;51.730;8.762;2023-08-06T06:40:34;99246.25;;;15.84;89.77
72640;BME280;60683;51.730;8.762;2023-08-06T06:43:01;99246.94;;;15.95;89.97
72640;BME280;60683;51.730;8.762;2023-08-06T06:45:28;99247.34;;;16.07;89.10
72640;BME280;60683;51.730;8.762;2023-08-06T06:47:56;99249.31;;;16.20;88.88
72640;BME280;60683;51.730;8.762;2023-08-06T06:50:23;99240.38;;;16.38;88.74
72640;BME280;60683;51.730;8.762;2023-08-06T06:52:51;99239.94;;;16.50;86.33
72640;BME280;60683;51.730;8.762;2023-08-06T06:55:19;99244.94;;;16.62;86.07
72640;BME280;60683;51.730;8.762;2023-08-06T06:57:45;99251.47;;;16.79;86.54
72640;BME280;60683;51.730;8.762;2023-08-06T07:00:14;99229.88;;;16.88;85.49
72640;BME280;60683;51.730;8.762;2023-08-06T07:02:41;99231.66;;;17.11;86.66
72640;BME280;60683;51.730;8.762;2023-08-06T07:05:09;99226.03;;;17.21;82.42
72640;BME280;60683;51.730;8.762;2023-08-06T07:07:36;99228.91;;;17.58;82.24
72640;BME280;60683;51.730;8.762;2023-08-06T07:10:04;99218.03;;;17.85;81.76
72640;BME280;60683;51.730;8.762;2023-08-06T07:12:31;99215.00;;;18.00;79.93
72640;BME280;60683;51.730;8.762;2023-08-06T07:14:58;99211.09;;;18.29;79.35
72640;BME280;60683;51.730;8.762;2023-08-06T07:17:25;99208.72;;;18.49;74.20
72640;BME280;60683;51.730;8.762;2023-08-06T07:19:52;99210.03;;;18.66;74.78
72640;BME280;60683;51.730;8.762;2023-08-06T07:22:21;99203.22;;;18.41;74.85
72640;BME280;60683;51.730;8.762;2023-08-06T07:24:48;99209.88;;;18.35;75.90
72640;BME280;60683;51.730;8.762;2023-08-06T07:27:16;99203.63;;;18.34;73.03
72640;BME280;60683;51.730;8.762;2023-08-06T07:29:44;99201.41;;;18.14;74.03
72640;BME280;60683;51.730;8.762;2023-08-06T07:32:10;99202.31;;;18.09;73.69
72640;BME280;60683;51.730;8.762;2023-08-06T07:34:40;99198.31;;;18.29;73.44
72640;BME280;60683;51.730;8.762;2023-08-06T07:37:10;99199.13;;;18.30;73.41
72640;BME280;60683;51.730;8.762;2023-08-06T07:39:39;99198.00;;;18.31;72.62
72640;BME280;60683;51.730;8.762;2023-08-06T07:42:10;99201.66;;;18.62;73.54
72640;BME280;60683;51.730;8.762;2023-08-06T07:44:37;99199.56;;;18.45;72.07
72640;BME280;60683;51.730;8.762;2023-08-06T07:47:05;99199.56;;;18.45;72.98
72640;BME280;60683;51.730;8.762;2023-08-06T07:49:32;99198.13;;;18.62;70.53
72640;BME280;60683;51.730;8.762;2023-08-06T07:51:59;99193.25;;;18.36;71.35
72640;BME280;60683;51.730;8.762;2023-08-06T07:54:26;99200.31;;;18.37;72.17
72640;BME280;60683;51.730;8.762;2023-08-06T07:56:55;99199.19;;;18.38;72.71
72640;BME280;60683;51.730;8.762;2023-08-06T07:59:22;99198.81;;;18.31;72.29
72640;BME280;60683;51.730;8.762;2023-08-06T08:01:49;99210.28;;;18.42;72.58
72640;BME280;60683;51.730;8.762;2023-08-06T08:04:17;99192.13;;;18.37;71.87
72640;BME280;60683;51.730;8.762;2023-08-06T08:06:43;99200.19;;;18.42;70.16
72640;BME280;60683;51.730;8.762;2023-08-06T08:09:11;99203.59;;;18.48;70.45
72640;BME280;60683;51.730;8.762;2023-08-06T08:11:39;99208.59;;;18.68;70.02
72640;BME280;60683;51.730;8.762;2023-08-06T08:14:07;99196.09;;;18.67;70.11
72640;BME280;60683;51.730;8.762;2023-08-06T08:16:34;99201.03;;;18.65;69.76
72640;BME280;60683;51.730;8.762;2023-08-06T08:19:01;99198.81;;;18.67;69.38
72640;BME280;60683;51.730;8.762;2023-08-06T08:21:32;99200.66;;;18.80;68.35
72640;BME280;60683;51.730;8.762;2023-08-06T08:23:59;99196.69;;;18.87;68.30
72640;BME280;60683;51.730;8.762;2023-08-06T08:26:26;99201.75;;;19.02;67.43
72640;BME280;60683;51.730;8.762;2023-08-06T08:28:54;99198.50;;;19.22;65.46
72640;BME280;60683;51.730;8.762;2023-08-06T08:31:22;99195.97;;;19.34;66.49
72640;BME280;60683;51.730;8.762;2023-08-06T08:33:50;99194.19;;;19.21;67.37
72640;BME280;60683;51.730;8.762;2023-08-06T08:36:17;99203.28;;;19.16;67.95
72640;BME280;60683;51.730;8.762;2023-08-06T08:38:44;99195.75;;;19.13;66.60
72640;BME280;60683;51.730;8.762;2023-08-06T08:41:11;99194.44;;;19.11;66.77
72640;BME280;60683;51.730;8.762;2023-08-06T08:43:40;99202.88;;;19.01;67.15
72640;BME280;60683;51.730;8.762;2023-08-06T08:46:08;99197.00;;;19.07;68.82
72640;BME280;60683;51.730;8.762;2023-08-06T08:48:37;99200.16;;;19.01;66.05
72640;BME280;60683;51.730;8.762;2023-08-06T08:51:06;99195.44;;;19.15;65.84
72640;BME280;60683;51.730;8.762;2023-08-06T08:53:34;99188.88;;;19.25;66.52
72640;BME280;60683;51.730;8.762;2023-08-06T08:56:04;99194.84;;;19.58;64.29
72640;BME280;60683;51.730;8.762;2023-08-06T08:58:32;99187.69;;;19.88;63.89
72640;BME280;60683;51.730;8.762;2023-08-06T09:00:59;99183.72;;;20.02;62.02
72640;BME280;60683;51.730;8.762;2023-08-06T09:03:26;99190.28;;;20.01;62.77
72640;BME280;60683;51.730;8.762;2023-08-06T09:05:55;99197.66;;;20.01;60.51
72640;BME280;60683;51.730;8.762;2023-08-06T09:08:24;99186.91;;;20.04;61.43
72640;BME280;60683;51.730;8.762;2023-08-06T09:10:54;99186.28;;;20.07;62.45
72640;BME280;60683;51.730;8.762;2023-08-06T09:13:22;99182.09;;;20.01;60.71
72640;BME280;60683;51.730;8.762;2023-08-06T09:15:49;99178.22;;;19.94;63.49
72640;BME280;60683;51.730;8.762;2023-08-06T09:18:24;99180.66;;;20.04;60.23
72640;BME280;60683;51.730;8.762;2023-08-06T09:20:52;99181.47;;;20.13;60.95
72640;BME280;60683;51.730;8.762;2023-08-06T09:23:20;99187.91;;;20.08;59.89
72640;BME280;60683;51.730;8.762;2023-08-06T09:25:47;99191.59;;;20.12;61.11
72640;BME280;60683;51.730;8.762;2023-08-06T09:28:14;99184.34;;;20.08;60.59
72640;BME280;60683;51.730;8.762;2023-08-06T09:30:41;99173.44;;;20.34;60.53
72640;BME280;60683;51.730;8.762;2023-08-06T09:33:08;99169.94;;;20.59;58.17
72640;BME280;60683;51.730;8.762;2023-08-06T09:35:37;99176.22;;;20.60;60.03
72640;BME280;60683;51.730;8.762;2023-08-06T09:38:08;99170.75;;;20.25;59.14
72640;BME280;60683;51.730;8.762;2023-08-06T09:40:38;99170.56;;;20.73;57.63
72640;BME280;60683;51.730;8.762;2023-08-06T09:43:05;99177.91;;;20.99;56.38
72640;BME280;60683;51.730;8.762;2023-08-06T09:45:33;99165.19;;;21.03;55.54
72640;BME280;60683;51.730;8.762;2023-08-06T09:48:03;99163.22;;;21.21;55.22
72640;BME280;60683;51.730;8.762;2023-08-06T09:50:32;99170.94;;;21.27;55.19
72640;BME280;60683;51.730;8.762;2023-08-06T09:53:01;99172.22;;;21.30;56.97
72640;BME280;60683;51.730;8.762;2023-08-06T09:55:29;99174.38;;;20.81;59.81
72640;BME280;60683;51.730;8.762;2023-08-06T09:57:58;99167.53;;;20.49;59.38
72640;BME280;60683;51.730;8.762;2023-08-06T10:00:25;99171.53;;;20.34;63.38
72640;BME280;60683;51.730;8.762;2023-08-06T10:02:55;99173.50;;;19.60;65.91
72640;BME280;60683;51.730;8.762;2023-08-06T10:05:26;99177.25;;;19.41;65.22
72640;BME280;60683;51.730;8.762;2023-08-06T10:07:57;99173.50;;;19.60;65.89
72640;BME280;60683;51.730;8.762;2023-08-06T10:10:27;99175.59;;;19.63;66.98
72640;BME280;60683;51.730;8.762;2023-08-06T10:12:58;99175.19;;;19.47;66.41
72640;BME280;60683;51.730;8.762;2023-08-06T10:15:27;99175.47;;;19.37;65.58
72640;BME280;60683;51.730;8.762;2023-08-06T10:17:57;99170.66;;;19.34;65.91
72640;BME280;60683;51.730;8.762;2023-08-06T10:20:25;99179.19;;;19.41;66.66
72640;BME280;60683;51.730;8.762;2023-08-06T10:23:03;99164.47;;;19.50;65.65
72640;BME280;60683;51.730;8.762;2023-08-06T10:25:31;99169.56;;;19.43;66.63
72640;BME280;60683;51.730;8.762;2023-08-06T10:28:07;99165.19;;;19.65;66.74
72640;BME280;60683;51.730;8.762;2023-08-06T10:30:41;99169.03;;;19.33;66.85
72640;BME280;60683;51.730;8.762;2023-08-06T10:33:08;99173.91;;;19.44;66.55
72640;BME280;60683;51.730;8.762;2023-08-06T10:35:36;99162.66;;;19.37;65.64
72640;BME280;60683;51.730;8.762;2023-08-06T10:38:05;99176.91;;;19.34;65.70
72640;BME280;60683;51.730;8.762;2023-08-06T10:40:39;99164.88;;;19.66;64.46
72640;BME280;60683;51.730;8.762;2023-08-06T10:43:08;99160.38;;;19.62;65.51
72640;BME280;60683;51.730;8.762;2023-08-06T10:45:51;99153.66;;;19.76;64.89
72640;BME280;60683;51.730;8.762;2023-08-06T10:48:28;99165.41;;;19.94;63.79
72640;BME280;60683;51.730;8.762;2023-08-06T10:50:56;99168.41;;;19.67;63.38
72640;BME280;60683;51.730;8.762;2023-08-06T10:53:23;99159.44;;;19.75;63.53
72640;BME280;60683;51.730;8.762;2023-08-06T10:55:50;99163.31;;;19.91;62.35
72640;BME280;60683;51.730;8.762;2023-08-06T10:58:18;99159.47;;;19.92;63.67
72640;BME280;60683;51.730;8.762;2023-08-06T11:00:45;99162.53;;;20.08;61.83
72640;BME280;60683;51.730;8.762;2023-08-06T11:03:14;99159.00;;;19.99;59.89
72640;BME280;60683;51.730;8.762;2023-08-06T11:05:48;99150.81;;;20.33;60.15
72640;BME280;60683;51.730;8.762;2023-08-06T11:08:23;99157.91;;;20.43;60.09
72640;BME280;60683;51.730;8.762;2023-08-06T11:10:50;99152.28;;;20.39;60.59
72640;BME280;60683;51.730;8.762;2023-08-06T11:13:21;99154.38;;;20.51;59.94
72640;BME280;60683;51.730;8.762;2023-08-06T11:15:48;99150.69;;;20.47;59.40
72640;BME280;60683;51.730;8.762;2023-08-06T11:18:15;99144.25;;;20.43;59.22
72640;BME280;60683;51.730;8.762;2023-08-06T11:20:42;99145.19;;;20.64;57.87
72640;BME280;60683;51.730;8.762;2023-08-06T11:23:10;99147.13;;;21.19;58.44
72640;BME280;60683;51.730;8.762;2023-08-06T11:25:44;99148.44;;;21.22;56.75
72640;BME280;60683;51.730;8.762;2023-08-06T11:28:11;99148.75;;;20.65;57.11
72640;BME280;60683;51.730;8.762;2023-08-06T11:30:41;99153.47;;;20.94;58.07
72640;BME280;60683;51.730;8.762;2023-08-06T11:33:08;99154.03;;;20.78;58.95
72640;BME280;60683;51.730;8.762;2023-08-06T11:35:36;99162.84;;;19.98;64.76
72640;BME280;60683;51.730;8.762;2023-08-06T11:38:06;99166.66;;;19.71;66.90
72640;BME280;60683;51.730;8.762;2023-08-06T11:40:35;99162.97;;;19.75;66.44
72640;BME280;60683;51.730;8.762;2023-08-06T11:43:02;99164.25;;;19.69;67.25
72640;BME280;60683;51.730;8.762;2023-08-06T11:45:29;99159.44;;;19.83;66.62
72640;BME280;60683;51.730;8.762;2023-08-06T11:47:58;99158.78;;;19.78;66.70
72640;BME280;60683;51.730;8.762;2023-08-06T11:50:28;99160.72;;;19.86;66.88
72640;BME280;60683;51.730;8.762;2023-08-06T11:52:58;99152.09;;;19.93;66.68
72640;BME280;60683;51.730;8.762;2023-08-06T11:55:27;99154.97;;;19.96;66.83
72640;BME280;60683;51.730;8.762;2023-08-06T11:57:55;99143.56;;;19.68;66.95
72640;BME280;60683;51.730;8.762;2023-08-06T12:00:24;99140.00;;;19.59;67.30
72640;BME280;60683;51.730;8.762;2023-08-06T12:02:52;99145.63;;;19.63;68.50
72640;BME280;60683;51.730;8.762;2023-08-06T12:05:23;99138.97;;;19.46;69.89
72640;BME280;60683;51.730;8.762;2023-08-06T12:07:51;99140.84;;;19.37;71.14
72640;BME280;60683;51.730;8.762;2023-08-06T12:10:19;99140.28;;;19.09;72.60
72640;BME280;60683;51.730;8.762;2023-08-06T12:12:47;99142.13;;;19.40;72.47
72640;BME280;60683;51.730;8.762;2023-08-06T12:15:14;99135.81;;;19.53;72.54
72640;BME280;60683;51.730;8.762;2023-08-06T12:17:43;99139.88;;;19.73;72.78
72640;BME280;60683;51.730;8.762;2023-08-06T12:20:10;99135.09;;;20.04;71.87
72640;BME280;60683;51.730;8.762;2023-08-06T12:22:39;99129.31;;;20.23;69.63
72640;BME280;60683;51.730;8.762;2023-08-06T12:25:08;99124.34;;;20.51;68.35
72640;BME280;60683;51.730;8.762;2023-08-06T12:27:39;99121.91;;;20.58;68.37
72640;BME280;60683;51.730;8.762;2023-08-06T12:30:06;99118.94;;;20.89;68.33
72640;BME280;60683;51.730;8.762;2023-08-06T12:32:34;99127.59;;;21.00;67.74
72640;BME280;60683;51.730;8.762;2023-08-06T12:35:01;99135.34;;;21.36;67.88
72640;BME280;60683;51.730;8.762;2023-08-06T12:37:28;99133.22;;;21.41;63.82
72640;BME280;60683;51.730;8.762;2023-08-06T12:39:56;99130.22;;;21.64;64.05
72640;BME280;60683;51.730;8.762;2023-08-06T12:42:24;99126.13;;;21.78;63.13
72640;BME280;60683;51.730;8.762;2023-08-06T12:44:51;99122.25;;;21.79;62.76
72640;BME280;60683;51.730;8.762;2023-08-06T12:47:19;99123.03;;;22.01;63.38
72640;BME280;60683;51.730;8.762;2023-08-06T12:49:46;99118.16;;;21.65;62.64
72640;BME280;60683;51.730;8.762;2023-08-06T12:52:13;99127.72;;;22.42;61.11
72640;BME280;60683;51.730;8.762;2023-08-06T12:54:42;99119.25;;;23.13;59.25
72640;BME280;60683;51.730;8.762;2023-08-06T12:57:13;99125.22;;;22.49;57.73
72640;BME280;60683;51.730;8.762;2023-08-06T12:59:40;99111.03;;;23.37;55.26
72640;BME280;60683;51.730;8.762;2023-08-06T13:02:07;99115.34;;;23.87;54.43
72640;BME280;60683;51.730;8.762;2023-08-06T13:04:34;99120.97;;;23.91;52.32